createdAt,value
2018-09-18T03:01:06.959Z,2.60
2018-09-18T03:02:07.497Z,4.50
2018-09-18T03:03:07.395Z,4.60
2018-09-18T03:04:07.321Z,4.50
2018-09-18T03:05:07.778Z,4.60
2018-09-18T03:06:08.065Z,4.90
2018-09-18T03:07:08.442Z,4.50
2018-09-18T03:08:07.860Z,4.80
2018-09-18T03:09:08.039Z,4.50
2018-09-18T03:10:08.782Z,4.80
2018-09-18T03:11:08.740Z,4.50
2018-09-18T03:12:08.014Z,5.20
2018-09-18T03:13:09.296Z,5.10
2018-09-18T03:14:07.577Z,4.90
2018-09-18T03:15:06.837Z,5.30
2018-09-18T03:16:06.987Z,4.80
2018-09-18T03:17:07.202Z,4.80
2018-09-18T03:18:07.256Z,4.80
2018-09-18T03:19:07.622Z,4.80
2018-09-18T03:20:07.607Z,4.90
2018-09-18T03:21:07.975Z,4.80
2018-09-18T03:22:07.984Z,4.70
2018-09-18T03:23:08.277Z,4.70
2018-09-18T03:24:08.411Z,4.80
2018-09-18T03:25:08.506Z,4.60
2018-09-18T03:26:08.933Z,4.50
2018-09-18T03:27:08.986Z,4.60
2018-09-18T03:28:09.098Z,4.70
2018-09-18T03:29:09.331Z,4.90
2018-09-18T03:30:09.457Z,5.20
2018-09-18T03:31:09.596Z,4.80
2018-09-18T03:32:09.711Z,4.50
2018-09-18T03:33:09.908Z,5.40
2018-09-18T03:34:09.972Z,4.80
2018-09-18T03:35:10.778Z,4.50
2018-09-18T03:36:10.440Z,5.20
2018-09-18T03:37:10.564Z,4.60
2018-09-18T03:38:10.820Z,4.70
2018-09-18T03:39:10.920Z,4.70
2018-09-18T03:40:11.081Z,5.10
2018-09-18T03:41:11.251Z,4.60
2018-09-18T03:42:11.351Z,4.50
2018-09-18T03:43:11.527Z,5.10
2018-09-18T03:44:11.829Z,4.90
2018-09-18T03:45:12.050Z,4.90
2018-09-18T03:46:12.238Z,5.30
2018-09-18T03:47:12.310Z,4.90
2018-09-18T03:48:12.418Z,5.30
2018-09-18T03:49:12.593Z,5.00
2018-09-18T03:50:12.697Z,4.70
2018-09-18T03:51:12.935Z,4.80
2018-09-18T03:52:13.172Z,5.00
2018-09-18T03:53:13.389Z,4.80
2018-09-18T03:54:13.465Z,5.10
2018-09-18T03:55:13.624Z,5.20
2018-09-18T03:56:13.965Z,4.70
2018-09-18T03:57:14.061Z,4.70
2018-09-18T03:58:14.288Z,4.90
2018-09-18T03:59:14.345Z,5.30
2018-09-18T04:00:14.510Z,5.20
2018-09-18T04:01:14.657Z,5.20
2018-09-18T04:02:14.832Z,5.20
2018-09-18T04:03:15.088Z,4.90
2018-09-18T04:04:15.350Z,5.10
2018-09-18T04:05:15.407Z,5.10
2018-09-18T04:06:15.680Z,5.20
2018-09-18T04:07:15.741Z,4.80
2018-09-18T04:08:15.893Z,4.70
2018-09-18T04:09:16.147Z,5.30
2018-09-18T04:10:16.188Z,5.20
2018-09-18T04:11:16.472Z,5.30
2018-09-18T04:12:16.632Z,4.70
2018-09-18T04:13:16.777Z,5.20
2018-09-18T04:14:16.916Z,5.10
2018-09-18T04:15:17.139Z,5.10
2018-09-18T04:16:17.308Z,5.20
2018-09-18T04:17:17.666Z,5.00
2018-09-18T04:18:17.722Z,5.00
2018-09-18T04:19:17.873Z,4.90
2018-09-18T04:20:18.211Z,5.00
2018-09-18T04:21:18.330Z,5.00
2018-09-18T04:22:18.479Z,4.90
2018-09-18T04:23:18.629Z,5.10
2018-09-18T04:24:18.805Z,5.20
2018-09-18T04:25:18.950Z,5.10
2018-09-18T04:26:19.011Z,4.70
2018-09-18T04:27:19.265Z,5.40
2018-09-18T04:28:19.541Z,5.00
2018-09-18T04:29:19.671Z,5.10
2018-09-18T04:30:19.811Z,5.00
2018-09-18T04:31:20.112Z,4.90
2018-09-18T04:32:20.115Z,5.20
2018-09-18T04:33:20.348Z,5.20
2018-09-18T04:34:20.534Z,4.90
2018-09-18T04:35:20.784Z,4.90
2018-09-18T04:36:20.798Z,4.80
2018-09-18T04:37:21.024Z,4.90
2018-09-18T04:38:21.176Z,4.90
2018-09-18T04:39:22.130Z,4.80
2018-09-18T04:40:21.602Z,5.10
2018-09-18T04:41:21.729Z,5.30
2018-09-18T04:42:21.989Z,5.10
2018-09-18T04:43:22.041Z,5.20
2018-09-18T04:44:22.330Z,5.40
2018-09-18T04:45:22.477Z,4.90
2018-09-18T04:46:22.609Z,4.90
2018-09-18T04:47:22.989Z,5.00
2018-09-18T04:48:23.021Z,5.20
2018-09-18T04:49:23.113Z,4.70
2018-09-18T04:50:23.202Z,5.20
2018-09-18T04:51:23.401Z,5.10
2018-09-18T04:52:23.477Z,4.90
2018-09-18T04:53:23.692Z,5.20
2018-09-18T04:54:23.870Z,4.80
2018-09-18T04:55:24.089Z,4.90
2018-09-18T04:56:25.191Z,4.80
2018-09-18T04:57:24.500Z,5.00
2018-09-18T04:58:24.583Z,5.20
2018-09-18T04:59:24.802Z,5.20
2018-09-18T05:00:24.924Z,5.30
2018-09-18T05:01:25.225Z,5.30
2018-09-18T05:02:25.312Z,5.50
2018-09-18T05:03:25.679Z,5.40
2018-09-18T05:04:25.611Z,5.00
2018-09-18T05:05:25.969Z,5.30
2018-09-18T05:06:25.912Z,4.80
2018-09-18T05:07:26.125Z,5.00
2018-09-18T05:08:26.306Z,5.00
2018-09-18T05:09:26.505Z,5.40
2018-09-18T05:10:27.093Z,5.40
2018-09-18T05:11:26.820Z,5.40
2018-09-18T05:12:26.969Z,5.90
2018-09-18T05:13:27.117Z,5.20
2018-09-18T05:14:27.254Z,5.50
2018-09-18T05:15:27.412Z,5.00
2018-09-18T05:16:27.599Z,5.00
2018-09-18T05:17:27.713Z,5.40
2018-09-18T05:18:27.888Z,5.30
2018-09-18T05:19:28.173Z,5.50
2018-09-18T05:20:29.092Z,5.50
2018-09-18T05:21:28.469Z,5.30
2018-09-18T05:22:28.819Z,5.30
2018-09-18T05:23:28.886Z,5.40
2018-09-18T05:24:28.978Z,5.20
2018-09-18T05:25:29.312Z,5.50
2018-09-18T05:26:29.599Z,5.70
2018-09-18T05:27:29.603Z,5.40
2018-09-18T05:28:30.118Z,5.10
2018-09-18T05:29:30.178Z,5.50
2018-09-18T05:30:30.262Z,5.10
2018-09-18T05:31:30.520Z,5.40
2018-09-18T05:32:31.007Z,5.30
2018-09-18T05:35:52.941Z,4.90
2018-09-18T05:36:53.319Z,5.10
2018-09-18T05:37:53.994Z,5.00
2018-09-18T05:38:53.282Z,5.20
2018-09-18T05:39:53.924Z,4.80
2018-09-18T05:40:54.211Z,5.40
2018-09-18T05:41:53.777Z,5.20
2018-09-18T05:42:53.134Z,5.10
2018-09-18T05:43:51.640Z,5.00
2018-09-18T05:44:51.891Z,5.50
2018-09-18T05:45:52.045Z,5.50
2018-09-18T05:46:52.148Z,5.40
2018-09-18T05:47:52.365Z,5.50
2018-09-18T05:48:52.744Z,5.80
2018-09-18T05:49:53.100Z,5.30
2018-09-18T05:50:53.110Z,6.20
2018-09-18T05:52:03.860Z,5.70
2018-09-18T05:52:55.396Z,5.60
2018-09-18T05:53:56.357Z,5.10
2018-09-18T05:54:56.160Z,5.00
2018-09-18T05:56:56.740Z,5.00
2018-09-18T05:57:54.185Z,5.60
2018-09-18T05:58:54.378Z,5.00
2018-09-18T05:59:54.516Z,5.60
2018-09-18T06:00:58.304Z,5.40
2018-09-18T06:01:54.951Z,5.20
2018-09-18T06:02:55.565Z,5.80
2018-09-18T06:03:57.477Z,5.30
2018-09-18T06:04:58.471Z,5.30
2018-09-18T06:06:58.926Z,5.90
2018-09-18T06:07:55.921Z,5.60
2018-09-18T06:08:56.055Z,5.40
2018-09-18T06:09:56.064Z,5.40
2018-09-18T06:10:56.290Z,5.60
2018-09-18T06:11:56.469Z,5.60
2018-09-18T06:12:56.658Z,5.70
2018-09-18T06:13:56.795Z,5.70
2018-09-18T06:14:57.003Z,6.10
2018-09-18T06:15:57.197Z,5.60
2018-09-18T06:16:57.388Z,5.90
2018-09-18T06:17:57.474Z,5.60
2018-09-18T06:18:57.471Z,5.50
2018-09-18T06:19:57.798Z,5.60
2018-09-18T06:20:57.849Z,5.60
2018-09-18T06:21:57.960Z,5.80
2018-09-18T06:22:58.157Z,5.20
2018-09-18T06:23:58.381Z,5.50
2018-09-18T06:24:58.627Z,5.60
2018-09-18T06:25:58.790Z,5.30
2018-09-18T06:26:59.059Z,5.70
2018-09-18T06:27:59.202Z,5.80
2018-09-18T06:28:59.345Z,5.50
2018-09-18T06:29:59.560Z,5.60
2018-09-18T06:30:59.680Z,5.50
2018-09-18T06:31:59.897Z,5.30
2018-09-18T06:33:00.074Z,5.20
2018-09-18T06:34:00.076Z,5.00
2018-09-18T06:35:00.292Z,5.50
2018-09-18T06:36:00.415Z,5.30
2018-09-18T06:37:00.663Z,5.90
2018-09-18T06:38:00.842Z,5.40
2018-09-18T06:39:01.123Z,5.70
2018-09-18T06:40:01.271Z,5.20
2018-09-18T06:41:01.640Z,5.80
2018-09-18T06:42:01.632Z,5.30
2018-09-18T06:43:02.026Z,5.40
2018-09-18T06:44:02.286Z,5.20
2018-09-18T06:45:02.723Z,5.20
2018-09-18T06:47:45.746Z,5.60
2018-09-18T06:48:45.771Z,5.70
2018-09-18T06:49:46.252Z,5.70
2018-09-18T06:50:48.094Z,5.40
2018-09-18T06:51:48.306Z,5.30
2018-09-18T06:53:16.187Z,5.40
2018-09-18T06:55:01.133Z,5.80
2018-09-18T06:55:48.349Z,5.90
2018-09-18T06:59:50.312Z,5.50
2018-09-18T07:00:47.258Z,5.10
2018-09-18T07:04:32.061Z,5.00
2018-09-18T07:05:34.348Z,5.40
2018-09-18T07:08:31.109Z,6.20
2018-09-18T07:09:32.591Z,6.10
2018-09-18T07:10:31.020Z,7.80
2018-09-18T07:12:39.959Z,5.50
2018-09-18T07:13:54.097Z,6.40
2018-09-18T07:14:36.640Z,6.00
2018-09-18T07:15:39.422Z,5.40
2018-09-18T07:17:32.031Z,5.10
2018-09-18T07:18:32.371Z,4.80
2018-09-18T07:20:30.753Z,5.20
2018-09-18T07:21:31.723Z,4.50
2018-09-18T07:22:31.856Z,4.80
2018-09-18T07:23:32.027Z,4.80
2018-09-18T07:24:29.934Z,4.60
2018-09-18T07:25:30.677Z,4.90
2018-09-18T07:26:30.765Z,4.80
2018-09-18T07:27:30.520Z,4.40
2018-09-18T07:28:30.441Z,4.50
2018-09-18T07:29:31.026Z,4.70
2018-09-18T07:32:15.280Z,4.60
2018-09-18T07:32:37.596Z,4.40
2018-09-18T07:33:36.143Z,4.20
2018-09-18T07:38:01.577Z,4.50
2018-09-18T07:39:33.634Z,4.90
2018-09-18T07:42:00.595Z,4.70
2018-09-18T07:43:02.139Z,4.70
2018-09-18T07:45:20.272Z,4.20
2018-09-18T07:46:01.002Z,4.60
2018-09-18T07:47:20.559Z,4.50
2018-09-18T07:48:06.068Z,4.20
2018-09-18T07:49:27.211Z,4.60
2018-09-18T07:50:03.835Z,4.30
2018-09-18T07:51:06.199Z,4.60
2018-09-18T07:52:01.813Z,4.60
2018-09-18T07:53:01.697Z,4.40
2018-09-18T07:54:02.349Z,4.20
2018-09-18T07:55:05.838Z,4.50
2018-09-18T07:56:01.996Z,4.50
2018-09-18T07:56:59.518Z,4.70
2018-09-18T07:57:59.893Z,4.20
2018-09-18T07:58:59.806Z,4.40
2018-09-18T07:59:59.746Z,4.60
2018-09-18T08:01:00.059Z,4.30
2018-09-18T08:02:18.737Z,4.40
2018-09-18T08:03:02.855Z,4.30
2018-09-18T08:04:02.615Z,4.60
2018-09-18T08:05:02.739Z,5.00
2018-09-18T08:06:04.116Z,4.60
2018-09-18T08:07:02.778Z,4.50
2018-09-18T08:08:01.901Z,5.10
2018-09-18T08:09:01.086Z,5.00
2018-09-18T08:10:01.291Z,4.80
2018-09-18T08:11:01.525Z,4.80
2018-09-18T08:12:02.031Z,4.90
2018-09-18T08:13:01.741Z,4.70
2018-09-18T08:14:02.337Z,4.70
2018-09-18T08:15:02.181Z,5.00
2018-09-18T08:16:02.219Z,4.70
2018-09-18T08:17:02.315Z,4.80
2018-09-18T08:18:02.671Z,4.70
2018-09-18T08:19:02.907Z,4.70
2018-09-18T08:20:02.914Z,4.70
2018-09-18T08:21:03.051Z,4.90
2018-09-18T08:22:03.312Z,4.70
2018-09-18T08:23:03.459Z,4.80
2018-09-18T08:24:03.679Z,4.60
2018-09-18T08:25:03.955Z,4.80
2018-09-18T08:26:03.963Z,4.30
2018-09-18T08:27:04.283Z,4.60
2018-09-18T08:28:04.894Z,4.00
2018-09-18T08:29:04.992Z,4.20
2018-09-18T08:30:05.094Z,4.10
2018-09-18T08:31:04.890Z,4.10
2018-09-18T08:32:05.079Z,4.00
2018-09-18T08:33:05.491Z,4.20
2018-09-18T08:34:05.604Z,4.20
2018-09-18T08:35:05.576Z,4.30
2018-09-18T08:36:06.030Z,4.20
2018-09-18T08:37:06.030Z,4.00
2018-09-18T08:38:06.235Z,3.90
2018-09-18T08:39:06.450Z,4.30
2018-09-18T08:40:06.520Z,4.60
2018-09-18T08:41:06.721Z,4.50
2018-09-18T08:42:06.854Z,4.10
2018-09-18T08:43:06.999Z,4.50
2018-09-18T08:44:07.284Z,4.10
2018-09-18T08:45:07.489Z,3.70
2018-09-18T08:46:07.720Z,3.90
2018-09-18T08:47:08.102Z,3.90
2018-09-18T08:48:08.460Z,4.10
2018-09-18T08:49:08.208Z,4.10
2018-09-18T08:50:08.535Z,3.70
2018-09-18T08:51:08.588Z,3.70
2018-09-18T08:52:08.841Z,3.60
2018-09-18T08:53:09.393Z,3.60
2018-09-18T08:54:10.058Z,4.10
2018-09-18T08:55:09.966Z,3.70
2018-09-18T08:56:09.612Z,3.50
2018-09-18T08:57:09.855Z,3.70
2018-09-18T08:58:10.388Z,3.70
2018-09-18T08:59:10.806Z,3.60
2018-09-18T09:00:10.025Z,3.40
2018-09-18T09:01:10.272Z,3.40
2018-09-18T09:02:10.522Z,3.50
2018-09-18T09:03:10.823Z,3.20
2018-09-18T09:04:10.822Z,3.40
2018-09-18T09:05:11.050Z,3.40
2018-09-18T09:06:11.362Z,3.40
2018-09-18T09:07:11.475Z,3.30
2018-09-18T09:08:11.768Z,3.20
2018-09-18T09:09:11.859Z,3.20
2018-09-18T09:10:12.078Z,3.40
2018-09-18T09:11:12.150Z,3.00
2018-09-18T09:12:12.355Z,3.50
2018-09-18T09:13:12.523Z,3.30
2018-09-18T09:14:12.477Z,3.00
2018-09-18T09:15:12.811Z,3.10
2018-09-18T09:16:13.290Z,3.20
2018-09-18T09:17:13.046Z,3.00
2018-09-18T09:18:13.507Z,3.00
2018-09-18T09:19:13.535Z,3.20
2018-09-18T09:20:13.723Z,3.00
2018-09-18T09:21:14.038Z,3.20
2018-09-18T09:22:14.066Z,3.00
2018-09-18T09:23:14.278Z,2.80
2018-09-18T09:24:14.265Z,3.00
2018-09-18T09:25:14.471Z,3.00
2018-09-18T09:26:14.840Z,3.10
2018-09-18T09:27:14.983Z,3.20
2018-09-18T09:28:15.064Z,2.60
2018-09-18T09:29:15.284Z,2.90
2018-09-18T09:30:15.440Z,2.70
2018-09-18T09:31:15.741Z,2.90
2018-09-18T09:32:15.841Z,3.20
2018-09-18T09:33:16.100Z,2.70
2018-09-18T09:34:16.334Z,3.10
2018-09-18T09:35:16.762Z,2.80
2018-09-18T09:36:16.533Z,3.00
2018-09-18T09:37:16.723Z,2.90
2018-09-18T09:38:16.858Z,2.70
2018-09-18T09:39:17.473Z,2.40
2018-09-18T09:40:17.363Z,2.70
2018-09-18T09:41:17.228Z,2.60
2018-09-18T09:42:17.954Z,2.80
2018-09-18T09:43:17.781Z,3.00
2018-09-18T09:44:18.464Z,2.90
2018-09-18T09:45:18.851Z,2.80
2018-09-18T09:46:19.045Z,2.70
2018-09-18T09:47:19.314Z,2.70
2018-09-18T09:48:22.350Z,2.80
2018-09-18T09:49:20.280Z,2.90
2018-09-18T09:50:19.645Z,2.90
2018-09-18T09:51:19.772Z,2.60
2018-09-18T09:52:19.841Z,2.50
2018-09-18T09:53:20.728Z,2.50
2018-09-18T09:54:20.681Z,2.40
2018-09-18T09:55:20.442Z,2.80
2018-09-18T09:56:20.694Z,2.60
2018-09-18T09:57:36.860Z,2.50
2018-09-18T09:58:26.327Z,2.80
2018-09-18T09:59:25.273Z,2.70
2018-09-18T10:00:32.144Z,2.50
2018-09-18T10:01:25.526Z,2.90
2018-09-18T10:02:25.713Z,2.60
2018-09-18T10:03:26.971Z,2.60
2018-09-18T10:05:23.447Z,2.60
2018-09-18T10:06:22.825Z,2.50
2018-09-18T10:07:22.851Z,2.70
2018-09-18T10:08:22.570Z,2.50
2018-09-18T10:09:22.950Z,2.40
2018-09-18T10:10:23.034Z,2.50
2018-09-18T10:11:23.148Z,2.50
2018-09-18T10:12:23.363Z,2.80
2018-09-18T10:13:23.406Z,2.70
2018-09-18T10:14:23.760Z,2.40
2018-09-18T10:15:23.842Z,2.50
2018-09-18T10:16:24.122Z,2.50
2018-09-18T10:17:24.282Z,2.20
2018-09-18T10:18:24.382Z,2.30
2018-09-18T10:19:24.560Z,2.60
2018-09-18T10:20:24.947Z,2.50
2018-09-18T10:21:25.653Z,2.60
2018-09-18T10:22:25.241Z,2.50
2018-09-18T10:23:25.349Z,2.30
2018-09-18T10:24:25.607Z,2.40
2018-09-18T10:25:25.673Z,2.50
2018-09-18T10:26:25.924Z,2.50
2018-09-18T10:27:26.405Z,2.40
2018-09-18T10:28:26.243Z,2.60
2018-09-18T10:29:26.320Z,2.50
2018-09-18T10:30:26.648Z,2.50
2018-09-18T10:31:26.837Z,2.30
2018-09-18T10:32:26.927Z,2.60
2018-09-18T10:33:27.118Z,2.30
2018-09-18T10:34:27.400Z,2.60
2018-09-18T10:35:27.655Z,2.30
2018-09-18T10:36:28.482Z,2.40
2018-09-18T10:37:27.897Z,2.50
2018-09-18T10:38:27.913Z,2.50
2018-09-18T10:39:28.106Z,2.40
2018-09-18T10:40:28.332Z,2.60
2018-09-18T10:41:28.468Z,2.20
2018-09-18T10:42:28.654Z,2.60
2018-09-18T10:43:28.931Z,2.30
2018-09-18T10:44:28.941Z,2.30
2018-09-18T10:45:29.207Z,2.10
2018-09-18T10:46:29.464Z,2.40
2018-09-18T10:47:29.655Z,2.40
2018-09-18T10:48:29.717Z,2.70
2018-09-18T10:49:29.928Z,2.50
2018-09-18T10:50:30.228Z,2.30
2018-09-18T10:51:30.343Z,2.50
2018-09-18T10:52:30.506Z,2.50
2018-09-18T10:53:30.731Z,2.50
2018-09-18T10:54:30.985Z,2.70
2018-09-18T10:55:31.100Z,2.70
2018-09-18T10:56:31.209Z,2.50
2018-09-18T10:57:31.534Z,2.70
2018-09-18T10:58:31.625Z,2.30
2018-09-18T10:59:31.889Z,2.60
2018-09-18T11:00:32.066Z,2.70
2018-09-18T11:01:32.264Z,2.40
2018-09-18T11:02:32.351Z,2.70
2018-09-18T11:03:32.495Z,2.70
2018-09-18T11:04:32.824Z,2.50
2018-09-18T11:05:32.961Z,2.50
2018-09-18T11:06:33.181Z,2.70
2018-09-18T11:07:34.540Z,2.80
2018-09-18T11:08:33.653Z,2.70
2018-09-18T11:09:33.757Z,2.40
2018-09-18T11:10:33.925Z,2.60
2018-09-18T11:11:34.043Z,2.50
2018-09-18T11:12:34.356Z,2.60
2018-09-18T11:13:34.512Z,2.60
2018-09-18T11:14:34.570Z,2.70
2018-09-18T11:15:34.758Z,2.90
2018-09-18T11:16:35.026Z,2.70
2018-09-18T11:17:35.146Z,2.50
2018-09-18T11:18:35.330Z,2.90
2018-09-18T11:19:35.701Z,2.70
2018-09-18T11:20:35.780Z,2.90
2018-09-18T11:21:36.080Z,2.70
2018-09-18T11:22:40.798Z,2.70
2018-09-18T11:23:36.268Z,3.00
2018-09-18T11:24:36.483Z,3.10
2018-09-18T11:25:36.640Z,3.00
2018-09-18T11:26:36.769Z,2.70
2018-09-18T11:27:37.039Z,2.80
2018-09-18T11:28:37.231Z,2.90
2018-09-18T11:29:37.456Z,3.00
2018-09-18T11:30:37.698Z,3.10
2018-09-18T11:31:37.778Z,2.90
2018-09-18T11:32:38.070Z,3.00
2018-09-18T11:33:38.125Z,3.20
2018-09-18T11:34:38.333Z,3.00
2018-09-18T11:35:38.558Z,3.00
2018-09-18T11:36:38.701Z,3.40
2018-09-18T11:37:38.956Z,3.20
2018-09-18T11:38:39.043Z,3.40
2018-09-18T11:39:39.283Z,3.30
2018-09-18T11:40:39.393Z,3.10
2018-09-18T11:41:39.614Z,3.00
2018-09-18T11:42:39.933Z,3.10
2018-09-18T11:43:40.124Z,3.30
2018-09-18T11:44:40.276Z,3.40
2018-09-18T11:45:40.528Z,3.30
2018-09-18T11:46:40.747Z,3.30
2018-09-18T11:47:40.856Z,3.40
2018-09-18T11:48:40.974Z,3.50
2018-09-18T11:49:41.386Z,3.40
2018-09-18T11:50:41.422Z,3.40
2018-09-18T11:51:41.625Z,3.70
2018-09-18T11:52:41.734Z,3.40
2018-09-18T11:53:42.073Z,3.50
2018-09-18T11:54:42.217Z,3.50
2018-09-18T11:55:42.348Z,3.30
2018-09-18T11:56:42.662Z,3.40
2018-09-18T11:57:42.676Z,3.50
2018-09-18T11:58:42.925Z,3.60
2018-09-18T11:59:43.138Z,3.60
2018-09-18T12:00:43.279Z,3.50
2018-09-18T12:01:43.545Z,3.60
2018-09-18T12:02:43.656Z,3.80
2018-09-18T12:03:43.844Z,3.70
2018-09-18T12:04:44.217Z,3.50
2018-09-18T12:05:44.147Z,3.70
2018-09-18T12:06:44.379Z,3.80
2018-09-18T12:07:44.540Z,3.60
2018-09-18T12:08:44.814Z,3.90
2018-09-18T12:09:45.026Z,3.70
2018-09-18T12:10:45.039Z,3.70
2018-09-18T12:11:45.301Z,3.80
2018-09-18T12:12:45.439Z,3.70
2018-09-18T12:13:45.749Z,3.80
2018-09-18T12:14:45.930Z,3.80
2018-09-18T12:15:46.117Z,3.80
2018-09-18T12:16:46.388Z,4.10
2018-09-18T12:17:46.504Z,3.90
2018-09-18T12:18:46.768Z,3.70
2018-09-18T12:19:47.031Z,3.70
2018-09-18T12:20:47.112Z,3.80
2018-09-18T12:21:47.431Z,3.80
2018-09-18T12:22:47.649Z,3.80
2018-09-18T12:23:47.650Z,3.80
2018-09-18T12:24:47.797Z,3.70
2018-09-18T12:25:48.165Z,3.70
2018-09-18T12:26:48.210Z,3.50
2018-09-18T12:27:48.463Z,3.60
2018-09-18T12:28:48.749Z,3.60
2018-09-18T12:29:48.853Z,3.40
2018-09-18T12:30:49.096Z,3.70
2018-09-18T12:31:49.353Z,3.70
2018-09-18T12:32:49.491Z,3.60
2018-09-18T12:33:49.581Z,3.30
2018-09-18T12:34:50.009Z,3.40
2018-09-18T12:35:50.844Z,3.40
2018-09-18T12:36:50.268Z,3.60
2018-09-18T12:37:50.317Z,3.50
2018-09-18T12:38:50.975Z,3.70
2018-09-18T12:39:50.964Z,3.60
2018-09-18T12:40:50.965Z,3.30
2018-09-18T12:41:51.318Z,3.40
2018-09-18T12:42:51.344Z,3.70
2018-09-18T12:43:51.633Z,3.50
2018-09-18T12:44:51.815Z,3.40
2018-09-18T12:45:52.009Z,3.50
2018-09-18T12:46:51.995Z,3.50
2018-09-18T12:47:52.217Z,3.40
2018-09-18T12:48:52.429Z,3.60
2018-09-18T12:49:52.933Z,3.40
2018-09-18T12:50:52.798Z,3.40
2018-09-18T12:51:52.980Z,3.30
2018-09-18T12:52:53.137Z,3.40
2018-09-18T12:53:53.439Z,3.70
2018-09-18T12:54:53.503Z,3.30
2018-09-18T12:55:53.733Z,3.40
2018-09-18T12:56:54.066Z,3.50
2018-09-18T12:57:54.258Z,3.40
2018-09-18T12:58:54.301Z,3.30
2018-09-18T12:59:54.647Z,3.50
2018-09-18T13:00:54.664Z,3.40
2018-09-18T13:01:54.942Z,3.50
2018-09-18T13:02:55.510Z,3.30
2018-09-18T13:03:55.383Z,3.30
2018-09-18T13:05:55.565Z,3.10
2018-09-18T13:06:55.846Z,3.20
2018-09-18T13:07:56.160Z,3.10
2018-09-18T13:08:56.301Z,3.30
2018-09-18T13:09:56.508Z,3.20
2018-09-18T13:10:56.625Z,3.00
2018-09-18T13:11:57.013Z,3.30
2018-09-18T13:12:57.079Z,3.10
2018-09-18T13:13:57.296Z,3.30
2018-09-18T13:14:57.401Z,3.10
2018-09-18T13:15:57.606Z,3.00
2018-09-18T13:16:57.848Z,3.30
2018-09-18T13:17:57.941Z,3.20
2018-09-18T13:18:58.254Z,3.20
2018-09-18T13:19:58.542Z,3.20
2018-09-18T13:20:58.584Z,3.10
2018-09-18T13:21:58.827Z,2.90
2018-09-18T13:22:58.974Z,3.50
2018-09-18T13:23:59.148Z,3.00
2018-09-18T13:24:59.344Z,3.10
2018-09-18T13:25:59.486Z,3.10
2018-09-18T13:26:59.771Z,3.30
2018-09-18T13:28:00.076Z,3.10
2018-09-18T13:29:00.224Z,3.00
2018-09-18T13:30:00.335Z,3.10
2018-09-18T13:31:00.627Z,3.10
2018-09-18T13:32:00.609Z,3.00
2018-09-18T13:33:00.837Z,2.90
2018-09-18T13:34:00.953Z,2.90
2018-09-18T13:35:01.317Z,2.90
2018-09-18T13:36:01.491Z,2.90
2018-09-18T13:37:01.760Z,2.80
2018-09-18T13:38:01.877Z,2.90
2018-09-18T13:39:02.167Z,2.90
2018-09-18T13:40:02.264Z,2.90
2018-09-18T13:41:02.538Z,2.90
2018-09-18T13:42:02.677Z,2.80
2018-09-18T13:43:02.874Z,2.90
2018-09-18T13:44:02.906Z,3.10
2018-09-18T13:45:03.252Z,2.90
2018-09-18T13:46:03.403Z,2.90
2018-09-18T13:47:03.603Z,2.50
2018-09-18T13:48:03.846Z,2.70
2018-09-18T13:49:04.234Z,2.80
2018-09-18T13:50:04.163Z,2.60
2018-09-18T13:51:04.454Z,2.90
2018-09-18T13:52:04.551Z,2.70
2018-09-18T13:53:04.824Z,2.70
2018-09-18T13:54:04.918Z,2.60
2018-09-18T13:55:05.214Z,2.60
2018-09-18T13:56:05.291Z,2.80
2018-09-18T13:57:05.545Z,2.70
2018-09-18T13:58:05.661Z,2.50
2018-09-18T13:59:05.919Z,2.70
2018-09-18T14:00:06.137Z,2.70
2018-09-18T14:01:06.299Z,2.60
2018-09-18T14:02:06.472Z,2.90
2018-09-18T14:03:06.656Z,2.80
2018-09-18T14:04:06.984Z,2.80
2018-09-18T14:05:08.078Z,2.60
2018-09-18T14:06:07.256Z,2.50
2018-09-18T14:07:07.485Z,2.60
2018-09-18T14:08:07.541Z,2.70
2018-09-18T14:09:07.759Z,2.60
2018-09-18T14:10:07.985Z,2.60
2018-09-18T14:11:08.202Z,2.70
2018-09-18T14:12:08.362Z,2.60
2018-09-18T14:13:08.643Z,2.60
2018-09-18T14:14:08.743Z,2.40
2018-09-18T14:15:08.949Z,2.50
2018-09-18T14:16:09.108Z,2.40
2018-09-18T14:17:09.367Z,2.70
2018-09-18T14:18:09.562Z,2.50
2018-09-18T14:19:09.635Z,2.50
2018-09-18T14:20:09.922Z,2.50
2018-09-18T14:21:10.123Z,2.60
2018-09-18T14:22:10.279Z,2.70
2018-09-18T14:23:10.481Z,2.70
2018-09-18T14:24:10.759Z,2.70
2018-09-18T14:25:11.438Z,2.50
2018-09-18T14:26:11.036Z,2.60
2018-09-18T14:27:11.222Z,2.50
2018-09-18T14:28:11.443Z,2.60
2018-09-18T14:29:11.635Z,2.50
2018-09-18T14:30:11.764Z,2.60
2018-09-18T14:31:11.959Z,2.50
2018-09-18T14:32:12.131Z,2.50
2018-09-18T14:33:12.327Z,2.30
2018-09-18T14:34:12.494Z,2.60
2018-09-18T14:35:12.755Z,2.60
2018-09-18T14:36:12.936Z,2.60
2018-09-18T14:37:13.025Z,2.50
2018-09-18T14:38:13.505Z,2.30
2018-09-18T14:39:13.461Z,2.60
2018-09-18T14:40:13.802Z,2.30
2018-09-18T14:41:13.917Z,2.50
2018-09-18T14:42:14.097Z,2.30
2018-09-18T14:43:14.189Z,2.30
2018-09-18T14:44:14.527Z,2.50
2018-09-18T14:45:14.756Z,2.20
2018-09-18T14:46:14.943Z,2.30
2018-09-18T14:47:15.144Z,2.10
2018-09-18T14:48:15.263Z,2.40
2018-09-18T14:49:15.412Z,2.20
2018-09-18T14:50:15.651Z,2.40
2018-09-18T14:51:15.888Z,2.30
2018-09-18T14:52:16.057Z,2.40
2018-09-18T14:53:16.219Z,2.50
2018-09-18T14:54:16.422Z,2.20
2018-09-18T14:55:16.638Z,2.30
2018-09-18T14:56:16.824Z,2.30
2018-09-18T14:57:16.899Z,2.30
2018-09-18T14:58:17.109Z,2.30
2018-09-18T14:59:17.420Z,2.60
2018-09-18T15:00:17.580Z,2.40
2018-09-18T15:01:17.755Z,2.50
2018-09-18T15:02:17.945Z,2.60
2018-09-18T15:03:17.999Z,2.60
2018-09-18T15:04:18.221Z,2.50
2018-09-18T15:05:18.503Z,2.50
2018-09-18T15:06:18.627Z,2.40
2018-09-18T15:07:18.783Z,3.00
2018-09-18T15:08:18.909Z,2.60
2018-09-18T15:09:19.162Z,2.60
2018-09-18T15:10:19.349Z,2.40
2018-09-18T15:11:19.494Z,2.20
2018-09-18T15:12:19.678Z,2.50
2018-09-18T15:13:19.771Z,2.30
2018-09-18T15:14:20.047Z,2.50
2018-09-18T15:15:20.195Z,2.60
2018-09-18T15:16:20.361Z,2.30
2018-09-18T15:17:20.573Z,2.70
2018-09-18T15:18:20.643Z,2.50
2018-09-18T15:19:20.963Z,2.80
2018-09-18T15:20:21.181Z,2.50
2018-09-18T15:21:21.330Z,2.40
2018-09-18T15:22:21.491Z,2.50
2018-09-18T15:23:21.681Z,2.80
2018-09-18T15:24:21.877Z,2.80
2018-09-18T15:25:22.020Z,2.50
2018-09-18T15:26:22.225Z,2.70
2018-09-18T15:27:22.438Z,2.60
2018-09-18T15:28:22.546Z,2.50
2018-09-18T15:29:22.703Z,2.80
2018-09-18T15:30:22.939Z,2.70
2018-09-18T15:31:23.071Z,2.80
2018-09-18T15:32:23.287Z,2.60
2018-09-18T15:33:23.506Z,2.90
2018-09-18T15:34:23.544Z,2.90
2018-09-18T15:35:23.814Z,2.80
2018-09-18T15:36:24.000Z,3.00
2018-09-18T15:37:24.139Z,2.90
2018-09-18T15:38:24.338Z,3.00
2018-09-18T15:39:24.489Z,2.80
2018-09-18T15:40:24.650Z,2.90
2018-09-18T15:41:24.900Z,3.10
2018-09-18T15:42:25.110Z,2.80
2018-09-18T15:43:25.291Z,2.80
2018-09-18T15:44:25.444Z,3.00
2018-09-18T15:45:25.578Z,3.10
2018-09-18T15:46:25.900Z,2.90
2018-09-18T15:47:26.040Z,3.10
2018-09-18T15:48:26.223Z,3.20
2018-09-18T15:49:26.391Z,3.10
2018-09-18T15:50:26.519Z,2.90
2018-09-18T15:51:26.745Z,3.00
2018-09-18T15:52:27.090Z,2.80
2018-09-18T15:53:27.332Z,2.90
2018-09-18T15:54:27.213Z,3.00
2018-09-18T15:55:27.355Z,3.00
2018-09-18T15:56:27.674Z,3.00
2018-09-18T15:57:27.840Z,3.20
2018-09-18T15:58:27.924Z,3.20
2018-09-18T15:59:28.201Z,3.10
2018-09-18T16:00:28.384Z,3.20
2018-09-18T16:01:28.549Z,2.90
2018-09-18T16:02:28.708Z,3.20
2018-09-18T16:03:28.830Z,3.10
2018-09-18T16:04:29.003Z,3.00
2018-09-18T16:05:29.159Z,3.00
2018-09-18T16:06:29.290Z,3.10
2018-09-18T16:07:29.577Z,2.90
2018-09-18T16:08:29.708Z,3.20
2018-09-18T16:09:29.859Z,3.20
2018-09-18T16:10:30.110Z,3.00
2018-09-18T16:11:30.334Z,3.00
2018-09-18T16:12:30.485Z,2.90
2018-09-18T16:13:30.557Z,3.00
2018-09-18T16:14:30.840Z,3.10
2018-09-18T16:15:31.087Z,3.00
2018-09-18T16:16:31.213Z,3.10
2018-09-18T16:17:31.299Z,3.10
2018-09-18T16:18:31.557Z,3.10
2018-09-18T16:19:31.636Z,3.00
2018-09-18T16:20:31.787Z,3.10
2018-09-18T16:21:32.065Z,3.20
2018-09-18T16:22:32.211Z,3.10
2018-09-18T16:24:32.557Z,3.30
2018-09-18T16:25:32.704Z,3.10
2018-09-18T16:26:32.898Z,3.20
2018-09-18T16:27:33.179Z,3.00
2018-09-18T16:28:33.426Z,3.20
2018-09-18T16:29:33.617Z,3.40
2018-09-18T16:30:33.624Z,3.10
2018-09-18T16:31:33.816Z,3.00
2018-09-18T16:32:33.981Z,2.90
2018-09-18T16:33:34.109Z,3.30
2018-09-18T16:34:34.385Z,3.10
2018-09-18T16:35:34.539Z,3.00
2018-09-18T16:36:34.661Z,3.10
2018-09-18T16:37:34.804Z,3.10
2018-09-18T16:38:35.101Z,3.10
2018-09-18T16:39:35.947Z,3.00
2018-09-18T16:40:35.479Z,3.00
2018-09-18T16:41:35.777Z,3.10
2018-09-18T16:42:35.867Z,3.10
2018-09-18T16:43:35.873Z,3.10
2018-09-18T16:44:36.198Z,3.40
2018-09-18T16:45:36.278Z,3.00
2018-09-18T16:46:36.540Z,3.10
2018-09-18T16:47:36.761Z,3.20
2018-09-18T16:48:36.846Z,3.30
2018-09-18T16:49:37.047Z,3.50